sensor_id;sensor_type;location;lat;lon;timestamp;pressure;altitude;pressure_sealevel;temperature;humidity
71057;BME280;58380;48.312;9.246;2022-08-05T05:08:45;93588.59;;;16.92;79.03
71057;BME280;58380;48.312;9.246;2022-08-05T05:11:14;93592.28;;;16.83;78.72
71057;BME280;58380;48.312;9.246;2022-08-05T05:13:42;93642.53;;;17.03;78.65
71057;BME280;58380;48.312;9.246;2022-08-05T05:16:11;93623.56;;;16.91;78.74
71057;BME280;58380;48.312;9.246;2022-08-05T05:18:40;93628.00;;;16.95;79.24
71057;BME280;58380;48.312;9.246;2022-08-05T05:21:09;93601.56;;;16.85;79.22
71057;BME280;58380;48.312;9.246;2022-08-05T05:23:38;93599.66;;;16.86;79.21
71057;BME280;58380;48.312;9.246;2022-08-05T05:26:09;93681.31;;;17.37;78.76
71057;BME280;58380;48.312;9.246;2022-08-05T05:28:38;93680.53;;;17.36;79.42
71057;BME280;58380;48.312;9.246;2022-08-05T05:31:06;93558.28;;;16.60;79.20
71057;BME280;58380;48.312;9.246;2022-08-05T05:33:35;93584.41;;;16.72;78.21
71057;BME280;58380;48.312;9.246;2022-08-05T05:36:04;93684.69;;;17.42;77.98
71057;BME280;58380;48.312;9.246;2022-08-05T05:38:33;93704.09;;;17.57;77.21
71057;BME280;58380;48.312;9.246;2022-08-05T05:41:01;93662.66;;;17.23;76.81
71057;BME280;58380;48.312;9.246;2022-08-05T05:43:32;93641.09;;;17.19;76.75
71057;BME280;58380;48.312;9.246;2022-08-05T05:46:01;93726.06;;;17.67;76.45
71057;BME280;58380;48.312;9.246;2022-08-05T05:48:29;93679.91;;;17.39;76.45
71057;BME280;58380;48.312;9.246;2022-08-05T05:50:58;93704.22;;;17.52;76.93
71057;BME280;58380;48.312;9.246;2022-08-05T05:53:27;93698.69;;;17.48;77.35
71057;BME280;58380;48.312;9.246;2022-08-05T05:55:56;93744.13;;;17.71;77.49
71057;BME280;58380;48.312;9.246;2022-08-05T05:58:24;93710.53;;;17.56;76.17
71057;BME280;58380;48.312;9.246;2022-08-05T06:00:56;93683.47;;;17.49;76.36
71057;BME280;58380;48.312;9.246;2022-08-05T06:03:24;93596.28;;;16.94;75.98
71057;BME280;58380;48.312;9.246;2022-08-05T06:05:53;93727.94;;;17.81;75.88
71057;BME280;58380;48.312;9.246;2022-08-05T06:08:21;93730.19;;;17.87;74.61
71057;BME280;58380;48.312;9.246;2022-08-05T06:10:50;93666.78;;;17.43;74.62
71057;BME280;58380;48.312;9.246;2022-08-05T06:13:18;93737.44;;;18.09;71.36
71057;BME280;58380;48.312;9.246;2022-08-05T06:15:47;93708.16;;;18.04;71.34
71057;BME280;58380;48.312;9.246;2022-08-05T06:18:18;93672.34;;;17.83;72.55
71057;BME280;58380;48.312;9.246;2022-08-05T06:20:46;93666.28;;;17.91;70.45
71057;BME280;58380;48.312;9.246;2022-08-05T06:23:15;93706.91;;;18.24;71.74
71057;BME280;58380;48.312;9.246;2022-08-05T06:25:43;93733.34;;;18.48;69.57
71057;BME280;58380;48.312;9.246;2022-08-05T06:28:13;93723.38;;;18.63;70.43
71057;BME280;58380;48.312;9.246;2022-08-05T06:30:41;93707.75;;;18.56;69.90
71057;BME280;58380;48.312;9.246;2022-08-05T06:33:10;93714.72;;;18.80;70.02
71057;BME280;58380;48.312;9.246;2022-08-05T06:35:41;93654.03;;;18.66;70.30
71057;BME280;58380;48.312;9.246;2022-08-05T06:38:09;93704.72;;;19.43;70.60
71057;BME280;58380;48.312;9.246;2022-08-05T06:40:38;93660.28;;;19.42;70.15
71057;BME280;58380;48.312;9.246;2022-08-05T06:43:09;93686.41;;;20.11;67.17
71057;BME280;58380;48.312;9.246;2022-08-05T06:45:37;93710.00;;;20.87;68.09
71057;BME280;58380;48.312;9.246;2022-08-05T06:48:06;93677.78;;;21.25;62.64
71057;BME280;58380;48.312;9.246;2022-08-05T06:50:35;93710.19;;;21.59;61.69
71057;BME280;58380;48.312;9.246;2022-08-05T06:53:07;93682.69;;;21.62;61.16
71057;BME280;58380;48.312;9.246;2022-08-05T06:55:38;93712.31;;;21.74;60.27
71057;BME280;58380;48.312;9.246;2022-08-05T06:58:06;93639.63;;;21.20;60.98
71057;BME280;58380;48.312;9.246;2022-08-05T07:00:35;93716.00;;;21.90;59.40
71057;BME280;58380;48.312;9.246;2022-08-05T07:03:03;93603.03;;;21.36;59.34
71057;BME280;58380;48.312;9.246;2022-08-05T07:05:32;93677.47;;;22.07;59.36
71057;BME280;58380;48.312;9.246;2022-08-05T07:08:00;93699.78;;;22.29;59.03
71057;BME280;58380;48.312;9.246;2022-08-05T07:10:32;93720.41;;;22.58;58.99
71057;BME280;58380;48.312;9.246;2022-08-05T07:13:00;93704.94;;;22.55;59.79
71057;BME280;58380;48.312;9.246;2022-08-05T07:15:42;93725.00;;;22.91;58.01
71057;BME280;58380;48.312;9.246;2022-08-05T07:18:23;93706.13;;;22.78;57.43
71057;BME280;58380;48.312;9.246;2022-08-05T07:20:51;93665.28;;;22.64;55.94
71057;BME280;58380;48.312;9.246;2022-08-05T07:23:24;93632.59;;;22.41;56.48
71057;BME280;58380;48.312;9.246;2022-08-05T07:25:59;93689.31;;;22.81;55.99
71057;BME280;58380;48.312;9.246;2022-08-05T07:28:27;93745.72;;;23.23;57.00
71057;BME280;58380;48.312;9.246;2022-08-05T07:30:56;93705.09;;;23.16;55.73
71057;BME280;58380;48.312;9.246;2022-08-05T07:33:25;93732.88;;;23.41;54.25
71057;BME280;58380;48.312;9.246;2022-08-05T07:35:54;93685.34;;;23.00;53.88
71057;BME280;58380;48.312;9.246;2022-08-05T07:38:22;93717.69;;;23.24;54.09
71057;BME280;58380;48.312;9.246;2022-08-05T07:40:51;93716.09;;;23.23;54.02
71057;BME280;58380;48.312;9.246;2022-08-05T07:43:22;93748.00;;;23.58;53.55
71057;BME280;58380;48.312;9.246;2022-08-05T07:45:50;93736.13;;;23.59;50.81
71057;BME280;58380;48.312;9.246;2022-08-05T07:48:19;93768.94;;;23.86;48.99
71057;BME280;58380;48.312;9.246;2022-08-05T07:50:48;93692.47;;;23.29;48.75
71057;BME280;58380;48.312;9.246;2022-08-05T07:53:16;93704.78;;;23.30;49.54
71057;BME280;58380;48.312;9.246;2022-08-05T07:55:49;93733.44;;;23.72;49.22
71057;BME280;58380;48.312;9.246;2022-08-05T07:58:18;93771.84;;;24.05;49.03
71057;BME280;58380;48.312;9.246;2022-08-05T08:00:49;93779.16;;;24.05;49.21
71057;BME280;58380;48.312;9.246;2022-08-05T08:03:17;93727.03;;;23.76;49.61
71057;BME280;58380;48.312;9.246;2022-08-05T08:05:46;93754.44;;;23.78;50.61
71057;BME280;58380;48.312;9.246;2022-08-05T08:08:15;93770.75;;;23.94;51.66
71057;BME280;58380;48.312;9.246;2022-08-05T08:10:45;93769.16;;;24.05;51.06
71057;BME280;58380;48.312;9.246;2022-08-05T08:13:14;93791.34;;;24.39;51.71
71057;BME280;58380;48.312;9.246;2022-08-05T08:15:42;93789.00;;;24.50;51.39
71057;BME280;58380;48.312;9.246;2022-08-05T08:18:14;93787.72;;;24.60;50.51
71057;BME280;58380;48.312;9.246;2022-08-05T08:20:43;93775.44;;;24.22;51.57
71057;BME280;58380;48.312;9.246;2022-08-05T08:23:13;93793.72;;;24.16;51.76
71057;BME280;58380;48.312;9.246;2022-08-05T08:25:42;93744.66;;;23.86;51.47
71057;BME280;58380;48.312;9.246;2022-08-05T08:28:11;93780.94;;;24.13;51.58
71057;BME280;58380;48.312;9.246;2022-08-05T08:30:40;93752.44;;;23.87;51.01
71057;BME280;58380;48.312;9.246;2022-08-05T08:33:15;93807.44;;;24.23;50.43
71057;BME280;58380;48.312;9.246;2022-08-05T08:35:44;93659.09;;;23.46;51.10
71057;BME280;58380;48.312;9.246;2022-08-05T08:38:12;93794.59;;;24.57;50.45
71057;BME280;58380;48.312;9.246;2022-08-05T08:40:41;93800.94;;;24.77;49.41
71057;BME280;58380;48.312;9.246;2022-08-05T08:43:11;93796.03;;;24.67;48.79
71057;BME280;58380;48.312;9.246;2022-08-05T08:45:41;93764.63;;;24.46;50.14
71057;BME280;58380;48.312;9.246;2022-08-05T08:48:16;93798.91;;;24.86;48.70
71057;BME280;58380;48.312;9.246;2022-08-05T08:50:48;93788.88;;;24.87;49.73
71057;BME280;58380;48.312;9.246;2022-08-05T08:53:18;93802.16;;;25.08;48.50
71057;BME280;58380;48.312;9.246;2022-08-05T08:55:48;93742.47;;;24.97;49.86
71057;BME280;58380;48.312;9.246;2022-08-05T08:58:18;93790.22;;;25.21;45.13
71057;BME280;58380;48.312;9.246;2022-08-05T09:00:47;93790.50;;;25.04;45.88
71057;BME280;58380;48.312;9.246;2022-08-05T09:03:19;93793.41;;;24.98;46.40
71057;BME280;58380;48.312;9.246;2022-08-05T09:05:48;93692.63;;;24.38;44.67
71057;BME280;58380;48.312;9.246;2022-08-05T09:08:17;93720.25;;;24.60;44.93
71057;BME280;58380;48.312;9.246;2022-08-05T09:10:46;93770.50;;;24.92;45.11
71057;BME280;58380;48.312;9.246;2022-08-05T09:13:15;93775.66;;;24.97;46.03
71057;BME280;58380;48.312;9.246;2022-08-05T09:15:45;93750.16;;;25.11;46.21
71057;BME280;58380;48.312;9.246;2022-08-05T09:18:14;93759.03;;;25.39;47.43
71057;BME280;58380;48.312;9.246;2022-08-05T09:20:48;93718.06;;;25.22;46.20
71057;BME280;58380;48.312;9.246;2022-08-05T09:23:21;93741.78;;;25.44;45.50
71057;BME280;58380;48.312;9.246;2022-08-05T09:25:51;93742.13;;;25.43;45.39
71057;BME280;58380;48.312;9.246;2022-08-05T09:28:33;93682.28;;;25.12;44.98
71057;BME280;58380;48.312;9.246;2022-08-05T09:31:05;93658.69;;;25.09;45.06
71057;BME280;58380;48.312;9.246;2022-08-05T09:33:46;93735.28;;;25.80;43.85
71057;BME280;58380;48.312;9.246;2022-08-05T09:36:19;93742.81;;;25.87;44.36
71057;BME280;58380;48.312;9.246;2022-08-05T09:38:55;93698.31;;;25.85;45.82
71057;BME280;58380;48.312;9.246;2022-08-05T09:41:26;93659.31;;;26.01;46.20
71057;BME280;58380;48.312;9.246;2022-08-05T09:43:54;93698.53;;;26.31;41.13
71057;BME280;58380;48.312;9.246;2022-08-05T09:46:25;93714.78;;;26.31;40.96
71057;BME280;58380;48.312;9.246;2022-08-05T09:48:56;93649.16;;;25.63;42.35
71057;BME280;58380;48.312;9.246;2022-08-05T09:51:36;93716.28;;;25.77;42.26
71057;BME280;58380;48.312;9.246;2022-08-05T10:01:59;93666.84;;;25.76;44.67
71057;BME280;58380;48.312;9.246;2022-08-05T10:09:53;93683.53;;;26.14;41.90
71057;BME280;58380;48.312;9.246;2022-08-05T10:12:23;93717.06;;;26.29;41.56
71057;BME280;58380;48.312;9.246;2022-08-05T10:14:51;93720.81;;;26.04;42.44
71057;BME280;58380;48.312;9.246;2022-08-05T10:17:20;93659.69;;;25.68;43.17
71057;BME280;58380;48.312;9.246;2022-08-05T10:19:49;93758.22;;;26.38;45.41
71057;BME280;58380;48.312;9.246;2022-08-05T10:22:18;93666.63;;;26.01;43.92
71057;BME280;58380;48.312;9.246;2022-08-05T10:24:49;93670.25;;;26.28;44.52
71057;BME280;58380;48.312;9.246;2022-08-05T10:27:18;93708.25;;;26.71;41.55
71057;BME280;58380;48.312;9.246;2022-08-05T10:29:47;93699.50;;;26.58;42.42
71057;BME280;58380;48.312;9.246;2022-08-05T10:32:16;93706.91;;;26.61;43.04
71057;BME280;58380;48.312;9.246;2022-08-05T10:34:45;93655.91;;;26.43;43.32
71057;BME280;58380;48.312;9.246;2022-08-05T10:37:14;93721.75;;;27.09;43.50
71057;BME280;58380;48.312;9.246;2022-08-05T10:39:44;93652.38;;;26.82;40.80
71057;BME280;58380;48.312;9.246;2022-08-05T10:42:23;93722.00;;;27.43;43.67
71057;BME280;58380;48.312;9.246;2022-08-05T10:44:55;93705.19;;;27.34;41.39
71057;BME280;58380;48.312;9.246;2022-08-05T10:47:30;93683.53;;;27.15;43.75
71057;BME280;58380;48.312;9.246;2022-08-05T10:50:07;93701.19;;;27.28;42.89
71057;BME280;58380;48.312;9.246;2022-08-05T10:52:40;93734.63;;;27.36;42.95
71057;BME280;58380;48.312;9.246;2022-08-05T10:55:14;93672.28;;;26.93;43.72
71057;BME280;58380;48.312;9.246;2022-08-05T10:57:43;93722.09;;;27.27;43.75
71057;BME280;58380;48.312;9.246;2022-08-05T11:00:17;93678.75;;;26.85;44.27
71057;BME280;58380;48.312;9.246;2022-08-05T11:03:09;93715.91;;;27.27;45.06
71057;BME280;58380;48.312;9.246;2022-08-05T11:05:40;93713.31;;;27.34;44.82
71057;BME280;58380;48.312;9.246;2022-08-05T11:08:11;93618.38;;;26.84;43.75
71057;BME280;58380;48.312;9.246;2022-08-05T11:10:48;93716.13;;;27.41;43.58
71057;BME280;58380;48.312;9.246;2022-08-05T11:13:42;93605.13;;;26.56;42.97
71057;BME280;58380;48.312;9.246;2022-08-05T11:16:22;93656.16;;;26.77;43.43
71057;BME280;58380;48.312;9.246;2022-08-05T11:21:54;93721.69;;;27.06;45.19
71057;BME280;58380;48.312;9.246;2022-08-05T11:24:23;93717.59;;;27.16;44.27
71057;BME280;58380;48.312;9.246;2022-08-05T11:29:59;93679.44;;;27.47;41.02
71057;BME280;58380;48.312;9.246;2022-08-05T11:32:28;93717.75;;;27.95;41.85
71057;BME280;58380;48.312;9.246;2022-08-05T11:34:59;93710.16;;;28.05;40.32
71057;BME280;58380;48.312;9.246;2022-08-05T11:40:58;93710.44;;;27.96;40.84
71057;BME280;58380;48.312;9.246;2022-08-05T11:43:30;93690.13;;;27.86;40.59
71057;BME280;58380;48.312;9.246;2022-08-05T11:46:00;93715.91;;;28.00;42.12
71057;BME280;58380;48.312;9.246;2022-08-05T11:48:29;93711.66;;;28.02;41.34
71057;BME280;58380;48.312;9.246;2022-08-05T11:50:58;93674.34;;;27.69;41.48
71057;BME280;58380;48.312;9.246;2022-08-05T11:53:27;93709.22;;;27.93;41.55
71057;BME280;58380;48.312;9.246;2022-08-05T11:55:59;93709.75;;;27.80;40.31
71057;BME280;58380;48.312;9.246;2022-08-05T11:58:34;93711.53;;;27.68;42.89
71057;BME280;58380;48.312;9.246;2022-08-05T12:01:05;93707.13;;;27.60;42.02
71057;BME280;58380;48.312;9.246;2022-08-05T12:03:42;93702.72;;;27.75;41.54
71057;BME280;58380;48.312;9.246;2022-08-05T12:06:13;93695.75;;;28.01;42.52
71057;BME280;58380;48.312;9.246;2022-08-05T12:08:45;93695.84;;;28.38;39.67
71057;BME280;58380;48.312;9.246;2022-08-05T12:11:18;93690.59;;;28.49;40.15
71057;BME280;58380;48.312;9.246;2022-08-05T12:13:57;93682.75;;;28.44;40.06
71057;BME280;58380;48.312;9.246;2022-08-05T12:16:30;93689.69;;;28.71;40.47
71057;BME280;58380;48.312;9.246;2022-08-05T12:18:59;93675.09;;;28.83;41.15
71057;BME280;58380;48.312;9.246;2022-08-05T12:21:29;93678.66;;;28.91;38.33
71057;BME280;58380;48.312;9.246;2022-08-05T12:24:01;93693.59;;;29.08;40.25
71057;BME280;58380;48.312;9.246;2022-08-05T12:26:32;93676.06;;;29.05;40.77
71057;BME280;58380;48.312;9.246;2022-08-05T12:29:07;93690.22;;;29.21;40.82
71057;BME280;58380;48.312;9.246;2022-08-05T12:31:38;93661.81;;;29.15;38.74
71057;BME280;58380;48.312;9.246;2022-08-05T12:34:08;93655.94;;;29.10;38.55
71057;BME280;58380;48.312;9.246;2022-08-05T12:36:37;93644.56;;;29.00;38.84
71057;BME280;58380;48.312;9.246;2022-08-05T12:39:08;93675.69;;;29.48;38.91
71057;BME280;58380;48.312;9.246;2022-08-05T12:41:38;93674.72;;;29.66;39.05
71057;BME280;58380;48.312;9.246;2022-08-05T12:44:13;93662.34;;;29.76;38.87
71057;BME280;58380;48.312;9.246;2022-08-05T12:46:51;93662.78;;;29.85;37.49
71057;BME280;58380;48.312;9.246;2022-08-05T12:49:21;93655.72;;;29.74;36.28
71057;BME280;58380;48.312;9.246;2022-08-05T12:51:51;93658.19;;;30.00;37.35
71057;BME280;58380;48.312;9.246;2022-08-05T12:54:25;93661.41;;;30.13;37.55
71057;BME280;58380;48.312;9.246;2022-08-05T12:56:58;93635.69;;;30.03;35.06
71057;BME280;58380;48.312;9.246;2022-08-05T12:59:32;93665.41;;;30.34;36.14
71057;BME280;58380;48.312;9.246;2022-08-05T13:02:12;93666.63;;;30.43;35.73
71057;BME280;58380;48.312;9.246;2022-08-05T13:04:44;93650.88;;;30.15;34.58
71057;BME280;58380;48.312;9.246;2022-08-05T13:07:15;93654.28;;;29.94;35.31
71057;BME280;58380;48.312;9.246;2022-08-05T13:09:50;93654.44;;;29.64;35.49
71057;BME280;58380;48.312;9.246;2022-08-05T13:12:21;93649.19;;;29.34;36.71
71057;BME280;58380;48.312;9.246;2022-08-05T13:14:56;93645.63;;;29.26;35.98
71057;BME280;58380;48.312;9.246;2022-08-05T13:17:27;93648.88;;;29.46;38.40
71057;BME280;58380;48.312;9.246;2022-08-05T13:19:59;93642.13;;;29.74;36.42
71057;BME280;58380;48.312;9.246;2022-08-05T13:22:30;93647.34;;;30.07;36.80
71057;BME280;58380;48.312;9.246;2022-08-05T13:25:00;93634.53;;;30.15;35.58
71057;BME280;58380;48.312;9.246;2022-08-05T13:27:32;93636.09;;;30.13;35.37
71057;BME280;58380;48.312;9.246;2022-08-05T13:30:06;93626.78;;;30.14;35.09
71057;BME280;58380;48.312;9.246;2022-08-05T13:32:37;93627.16;;;30.12;34.39
71057;BME280;58380;48.312;9.246;2022-08-05T13:35:07;93612.97;;;29.78;34.88
71057;BME280;58380;48.312;9.246;2022-08-05T13:37:36;93613.00;;;29.81;35.82
71057;BME280;58380;48.312;9.246;2022-08-05T13:40:07;93620.28;;;29.66;36.19
71057;BME280;58380;48.312;9.246;2022-08-05T13:42:37;93587.97;;;29.61;35.54
71057;BME280;58380;48.312;9.246;2022-08-05T13:45:10;93570.84;;;29.57;35.86
71057;BME280;58380;48.312;9.246;2022-08-05T13:47:39;93584.69;;;30.00;37.40
71057;BME280;58380;48.312;9.246;2022-08-05T13:50:07;93581.69;;;30.16;36.83
71057;BME280;58380;48.312;9.246;2022-08-05T13:52:36;93595.38;;;30.38;37.17
71057;BME280;58380;48.312;9.246;2022-08-05T13:55:05;93594.69;;;30.69;36.99
71057;BME280;58380;48.312;9.246;2022-08-05T13:57:34;93547.97;;;30.57;37.33
71057;BME280;58380;48.312;9.246;2022-08-05T14:00:03;93587.75;;;30.90;36.44
71057;BME280;58380;48.312;9.246;2022-08-05T14:02:35;93557.78;;;31.04;36.45
71057;BME280;58380;48.312;9.246;2022-08-05T14:05:05;93581.13;;;31.12;34.96
71057;BME280;58380;48.312;9.246;2022-08-05T14:07:39;93554.25;;;30.89;36.07
71057;BME280;58380;48.312;9.246;2022-08-05T14:10:11;93565.19;;;31.04;35.25
71057;BME280;58380;48.312;9.246;2022-08-05T14:12:42;93572.56;;;30.85;35.43
71057;BME280;58380;48.312;9.246;2022-08-05T14:15:12;93565.91;;;30.68;35.44
71057;BME280;58380;48.312;9.246;2022-08-05T14:17:43;93553.69;;;30.19;35.61
71057;BME280;58380;48.312;9.246;2022-08-05T14:20:12;93600.28;;;30.03;37.63
71057;BME280;58380;48.312;9.246;2022-08-05T14:22:41;93559.16;;;29.50;38.43
71057;BME280;58380;48.312;9.246;2022-08-05T14:25:10;93542.31;;;29.26;38.15
71057;BME280;58380;48.312;9.246;2022-08-05T14:27:39;93587.41;;;29.97;39.46
71057;BME280;58380;48.312;9.246;2022-08-05T14:30:08;93568.06;;;30.20;37.95
71057;BME280;58380;48.312;9.246;2022-08-05T14:32:37;93571.13;;;30.07;37.61
71057;BME280;58380;48.312;9.246;2022-08-05T14:35:09;93578.66;;;29.62;36.77
71057;BME280;58380;48.312;9.246;2022-08-05T14:37:38;93583.88;;;29.30;37.83
71057;BME280;58380;48.312;9.246;2022-08-05T14:40:08;93562.19;;;28.89;37.49
71057;BME280;58380;48.312;9.246;2022-08-05T14:42:38;93580.78;;;28.84;40.14
71057;BME280;58380;48.312;9.246;2022-08-05T14:45:08;93549.47;;;28.56;38.79
71057;BME280;58380;48.312;9.246;2022-08-05T14:47:37;93547.06;;;28.47;40.32
71057;BME280;58380;48.312;9.246;2022-08-05T14:50:09;93577.59;;;28.40;41.37
71057;BME280;58380;48.312;9.246;2022-08-05T14:52:37;93545.38;;;28.02;41.14
71057;BME280;58380;48.312;9.246;2022-08-05T14:55:07;93584.88;;;27.99;48.31
71057;BME280;58380;48.312;9.246;2022-08-05T14:57:36;93609.50;;;27.83;48.91
71057;BME280;58380;48.312;9.246;2022-08-05T15:00:06;93597.19;;;27.36;49.99
71057;BME280;58380;48.312;9.246;2022-08-05T15:02:35;93583.63;;;27.13;56.56
71057;BME280;58380;48.312;9.246;2022-08-05T15:05:05;93595.38;;;26.98;58.14
71057;BME280;58380;48.312;9.246;2022-08-05T15:07:37;93602.00;;;26.77;55.56
71057;BME280;58380;48.312;9.246;2022-08-05T15:10:06;93572.47;;;26.68;58.57
71057;BME280;58380;48.312;9.246;2022-08-05T15:12:36;93587.13;;;26.67;58.31
71057;BME280;58380;48.312;9.246;2022-08-05T15:15:06;93602.94;;;26.65;60.49
71057;BME280;58380;48.312;9.246;2022-08-05T15:17:35;93598.31;;;26.23;62.75
71057;BME280;58380;48.312;9.246;2022-08-05T15:20:05;93643.75;;;25.98;63.75
71057;BME280;58380;48.312;9.246;2022-08-05T15:22:38;93643.91;;;25.86;63.49
71057;BME280;58380;48.312;9.246;2022-08-05T15:25:08;93632.75;;;25.56;57.58
71057;BME280;58380;48.312;9.246;2022-08-05T15:27:37;93642.19;;;25.62;51.71
71057;BME280;58380;48.312;9.246;2022-08-05T15:30:07;93629.25;;;25.71;57.01
71057;BME280;58380;48.312;9.246;2022-08-05T15:32:37;93634.31;;;25.89;56.04
71057;BME280;58380;48.312;9.246;2022-08-05T15:35:06;93630.59;;;25.97;58.31
71057;BME280;58380;48.312;9.246;2022-08-05T15:37:39;93633.59;;;25.92;56.55
71057;BME280;58380;48.312;9.246;2022-08-05T15:40:09;93640.69;;;25.65;55.79
71057;BME280;58380;48.312;9.246;2022-08-05T15:42:39;93646.50;;;25.31;55.66
71057;BME280;58380;48.312;9.246;2022-08-05T15:45:08;93654.94;;;25.14;56.52
71057;BME280;58380;48.312;9.246;2022-08-05T15:47:37;93654.75;;;25.07;57.32
71057;BME280;58380;48.312;9.246;2022-08-05T15:50:07;93647.53;;;24.95;59.27
71057;BME280;58380;48.312;9.246;2022-08-05T15:52:41;93647.19;;;24.96;60.10
71057;BME280;58380;48.312;9.246;2022-08-05T15:55:11;93647.84;;;24.93;59.19
71057;BME280;58380;48.312;9.246;2022-08-05T15:57:42;93658.50;;;24.86;60.01
71057;BME280;58380;48.312;9.246;2022-08-05T16:00:12;93665.00;;;24.85;62.01
71057;BME280;58380;48.312;9.246;2022-08-05T16:02:42;93637.63;;;24.71;62.18
71057;BME280;58380;48.312;9.246;2022-08-05T16:05:11;93644.00;;;24.79;63.13
71057;BME280;58380;48.312;9.246;2022-08-05T16:07:42;93625.03;;;24.59;62.92
71057;BME280;58380;48.312;9.246;2022-08-05T16:10:11;93644.34;;;24.61;62.46
71057;BME280;58380;48.312;9.246;2022-08-05T16:12:39;93662.81;;;24.59;62.59
71057;BME280;58380;48.312;9.246;2022-08-05T16:15:09;93671.16;;;24.42;58.09
71057;BME280;58380;48.312;9.246;2022-08-05T16:17:39;93679.94;;;24.39;57.98
71057;BME280;58380;48.312;9.246;2022-08-05T16:20:09;93686.44;;;24.50;56.44
71057;BME280;58380;48.312;9.246;2022-08-05T16:22:37;93696.66;;;24.57;56.04
71057;BME280;58380;48.312;9.246;2022-08-05T16:25:09;93672.50;;;24.48;56.92
71057;BME280;58380;48.312;9.246;2022-08-05T16:27:38;93680.09;;;24.58;54.87
71057;BME280;58380;48.312;9.246;2022-08-05T16:30:08;93668.97;;;24.60;54.07
71057;BME280;58380;48.312;9.246;2022-08-05T16:32:38;93666.88;;;24.53;55.16
71057;BME280;58380;48.312;9.246;2022-08-05T16:35:08;93653.63;;;24.48;57.02
71057;BME280;58380;48.312;9.246;2022-08-05T16:37:36;93654.97;;;24.42;56.42
71057;BME280;58380;48.312;9.246;2022-08-05T16:40:06;93661.41;;;24.37;56.44
71057;BME280;58380;48.312;9.246;2022-08-05T16:42:38;93628.34;;;24.12;57.94
71057;BME280;58380;48.312;9.246;2022-08-05T16:45:09;93669.09;;;24.23;61.73
71057;BME280;58380;48.312;9.246;2022-08-05T16:47:38;93663.75;;;24.10;61.42
71057;BME280;58380;48.312;9.246;2022-08-05T16:50:10;93656.16;;;23.88;64.22
71057;BME280;58380;48.312;9.246;2022-08-05T16:52:38;93685.34;;;23.86;64.49
71057;BME280;58380;48.312;9.246;2022-08-05T16:55:11;93737.69;;;23.48;62.94
71057;BME280;58380;48.312;9.246;2022-08-05T16:57:39;93763.53;;;23.03;68.03
71057;BME280;58380;48.312;9.246;2022-08-05T17:00:10;93772.09;;;22.64;71.22
71057;BME280;58380;48.312;9.246;2022-08-05T17:02:40;93680.22;;;21.98;75.41
71057;BME280;58380;48.312;9.246;2022-08-05T17:05:36;93667.91;;;21.97;77.33
71057;BME280;58380;48.312;9.246;2022-08-05T17:11:36;93653.38;;;21.69;78.26
71057;BME280;58380;48.312;9.246;2022-08-05T17:14:07;93611.25;;;21.61;75.08
71057;BME280;58380;48.312;9.246;2022-08-05T17:16:36;93647.97;;;21.98;77.34
71057;BME280;58380;48.312;9.246;2022-08-05T17:19:05;93617.28;;;21.79;75.45
71057;BME280;58380;48.312;9.246;2022-08-05T17:24:03;93656.88;;;21.90;76.20
71057;BME280;58380;48.312;9.246;2022-08-05T17:26:36;93697.84;;;22.08;78.58
71057;BME280;58380;48.312;9.246;2022-08-05T17:29:05;93705.34;;;22.03;79.88
71057;BME280;58380;48.312;9.246;2022-08-05T17:31:34;93643.38;;;21.57;78.91
71057;BME280;58380;48.312;9.246;2022-08-05T17:34:02;93716.75;;;22.00;77.25
71057;BME280;58380;48.312;9.246;2022-08-05T17:36:31;93662.00;;;21.62;78.99
71057;BME280;58380;48.312;9.246;2022-08-05T17:38:59;93703.69;;;21.89;79.85
71057;BME280;58380;48.312;9.246;2022-08-05T17:41:28;93679.34;;;21.65;78.29
71057;BME280;58380;48.312;9.246;2022-08-05T17:43:59;93714.16;;;21.82;78.18
71057;BME280;58380;48.312;9.246;2022-08-05T17:46:28;93712.06;;;21.88;78.19
71057;BME280;58380;48.312;9.246;2022-08-05T17:48:57;93688.66;;;21.67;77.59
71057;BME280;58380;48.312;9.246;2022-08-05T17:51:25;93730.88;;;21.88;73.14
71057;BME280;58380;48.312;9.246;2022-08-05T17:53:54;93738.16;;;21.87;76.70
71057;BME280;58380;48.312;9.246;2022-08-05T17:56:22;93649.22;;;21.21;75.51
71057;BME280;58380;48.312;9.246;2022-08-05T17:58:51;93707.09;;;21.48;73.59
71057;BME280;58380;48.312;9.246;2022-08-05T18:01:22;93650.03;;;20.83;73.55
71057;BME280;58380;48.312;9.246;2022-08-05T18:03:51;93699.94;;;21.14;75.50
71057;BME280;58380;48.312;9.246;2022-08-05T18:06:20;93671.50;;;20.83;77.60
71057;BME280;58380;48.312;9.246;2022-08-05T18:08:48;93642.38;;;20.55;73.24
71057;BME280;58380;48.312;9.246;2022-08-05T18:11:17;93672.47;;;20.70;72.49
71057;BME280;58380;48.312;9.246;2022-08-05T18:13:46;93686.69;;;20.70;76.57
71057;BME280;58380;48.312;9.246;2022-08-05T18:16:15;93751.28;;;21.03;73.33
71057;BME280;58380;48.312;9.246;2022-08-05T18:18:46;93691.59;;;20.42;74.11
71057;BME280;58380;48.312;9.246;2022-08-05T18:21:15;93711.31;;;20.55;72.61
71057;BME280;58380;48.312;9.246;2022-08-05T18:23:44;93773.41;;;20.92;75.06
71057;BME280;58380;48.312;9.246;2022-08-05T18:26:13;93777.69;;;20.84;73.29
71057;BME280;58380;48.312;9.246;2022-08-05T18:28:42;93731.50;;;20.35;74.12
71057;BME280;58380;48.312;9.246;2022-08-05T18:31:10;93739.06;;;20.33;74.33
71057;BME280;58380;48.312;9.246;2022-08-05T18:33:39;93739.38;;;20.22;73.70
71057;BME280;58380;48.312;9.246;2022-08-05T18:36:10;93798.69;;;20.56;72.56
71057;BME280;58380;48.312;9.246;2022-08-05T18:38:39;93806.75;;;20.56;72.55
71057;BME280;58380;48.312;9.246;2022-08-05T18:41:08;93802.00;;;20.53;73.08
71057;BME280;58380;48.312;9.246;2022-08-05T18:43:37;93816.97;;;20.45;72.77
71057;BME280;58380;48.312;9.246;2022-08-05T18:46:06;93788.41;;;20.23;71.36
71057;BME280;58380;48.312;9.246;2022-08-05T18:48:35;93772.16;;;20.11;71.91
71057;BME280;58380;48.312;9.246;2022-08-05T18:51:03;93741.88;;;19.93;73.24
71057;BME280;58380;48.312;9.246;2022-08-05T18:53:47;93819.31;;;20.29;71.94